sensor_id;sensor_type;location;lat;lon;timestamp;P1;durP1;ratioP1;P2;durP2;ratioP2
34673;SDS011;20879;55.668;37.858;2022-09-09T00:01:47;3.13;;;1.10;;
34673;SDS011;20879;55.668;37.858;2022-09-09T00:04:22;2.58;;;1.20;;
34673;SDS011;20879;55.668;37.858;2022-09-09T00:06:59;1.38;;;1.10;;
34673;SDS011;20879;55.668;37.858;2022-09-09T00:09:39;2.88;;;1.25;;
34673;SDS011;20879;55.668;37.858;2022-09-09T00:12:16;1.92;;;1.15;;
34673;SDS011;20879;55.668;37.858;2022-09-09T00:15:00;1.42;;;1.15;;
34673;SDS011;20879;55.668;37.858;2022-09-09T00:17:35;1.52;;;1.02;;
34673;SDS011;20879;55.668;37.858;2022-09-09T00:20:10;1.25;;;1.00;;
34673;SDS011;20879;55.668;37.858;2022-09-09T00:22:44;1.92;;;1.20;;
34673;SDS011;20879;55.668;37.858;2022-09-09T00:25:22;1.75;;;1.00;;
34673;SDS011;20879;55.668;37.858;2022-09-09T00:27:56;2.08;;;1.30;;
34673;SDS011;20879;55.668;37.858;2022-09-09T00:30:26;1.33;;;0.90;;
34673;SDS011;20879;55.668;37.858;2022-09-09T00:33:01;2.80;;;1.13;;
34673;SDS011;20879;55.668;37.858;2022-09-09T00:35:41;1.70;;;1.20;;
34673;SDS011;20879;55.668;37.858;2022-09-09T00:38:13;2.17;;;1.30;;
34673;SDS011;20879;55.668;37.858;2022-09-09T00:40:48;1.83;;;1.10;;
34673;SDS011;20879;55.668;37.858;2022-09-09T00:43:26;1.45;;;1.10;;
34673;SDS011;20879;55.668;37.858;2022-09-09T00:46:08;4.05;;;1.30;;
34673;SDS011;20879;55.668;37.858;2022-09-09T00:51:44;1.42;;;1.05;;
34673;SDS011;20879;55.668;37.858;2022-09-09T00:54:32;1.80;;;1.10;;
34673;SDS011;20879;55.668;37.858;2022-09-09T00:57:22;1.05;;;0.93;;
34673;SDS011;20879;55.668;37.858;2022-09-09T01:00:01;1.60;;;0.93;;
34673;SDS011;20879;55.668;37.858;2022-09-09T01:02:49;2.10;;;0.90;;
34673;SDS011;20879;55.668;37.858;2022-09-09T01:05:29;1.42;;;0.80;;
34673;SDS011;20879;55.668;37.858;2022-09-09T01:08:05;2.15;;;1.20;;
34673;SDS011;20879;55.668;37.858;2022-09-09T01:10:47;2.38;;;1.10;;
34673;SDS011;20879;55.668;37.858;2022-09-09T01:13:25;2.47;;;1.15;;
34673;SDS011;20879;55.668;37.858;2022-09-09T01:16:01;1.98;;;1.30;;
34673;SDS011;20879;55.668;37.858;2022-09-09T01:18:34;1.20;;;1.00;;
34673;SDS011;20879;55.668;37.858;2022-09-09T01:21:09;1.50;;;1.20;;
34673;SDS011;20879;55.668;37.858;2022-09-09T01:24:01;1.85;;;1.20;;
34673;SDS011;20879;55.668;37.858;2022-09-09T01:26:58;6.30;;;1.30;;
34673;SDS011;20879;55.668;37.858;2022-09-09T01:29:36;1.00;;;0.90;;
34673;SDS011;20879;55.668;37.858;2022-09-09T01:35:06;1.05;;;0.90;;
34673;SDS011;20879;55.668;37.858;2022-09-09T01:37:43;2.65;;;1.00;;
34673;SDS011;20879;55.668;37.858;2022-09-09T01:40:12;1.08;;;0.85;;
34673;SDS011;20879;55.668;37.858;2022-09-09T01:42:43;4.18;;;1.40;;
34673;SDS011;20879;55.668;37.858;2022-09-09T01:45:12;0.95;;;0.90;;
34673;SDS011;20879;55.668;37.858;2022-09-09T01:47:42;1.05;;;0.82;;
34673;SDS011;20879;55.668;37.858;2022-09-09T01:50:19;2.72;;;1.02;;
34673;SDS011;20879;55.668;37.858;2022-09-09T01:52:50;3.28;;;0.98;;
34673;SDS011;20879;55.668;37.858;2022-09-09T01:55:31;1.30;;;0.98;;
34673;SDS011;20879;55.668;37.858;2022-09-09T01:58:09;2.08;;;1.00;;
34673;SDS011;20879;55.668;37.858;2022-09-09T02:00:54;2.22;;;1.20;;
34673;SDS011;20879;55.668;37.858;2022-09-09T02:03:31;1.27;;;1.10;;
34673;SDS011;20879;55.668;37.858;2022-09-09T02:06:14;1.33;;;1.10;;
34673;SDS011;20879;55.668;37.858;2022-09-09T02:08:59;2.13;;;1.40;;
34673;SDS011;20879;55.668;37.858;2022-09-09T02:11:33;1.50;;;1.20;;
34673;SDS011;20879;55.668;37.858;2022-09-09T02:14:16;1.63;;;1.10;;
34673;SDS011;20879;55.668;37.858;2022-09-09T02:16:50;1.83;;;1.30;;
34673;SDS011;20879;55.668;37.858;2022-09-09T02:19:35;2.45;;;1.33;;
34673;SDS011;20879;55.668;37.858;2022-09-09T02:22:22;3.00;;;1.20;;
34673;SDS011;20879;55.668;37.858;2022-09-09T02:24:56;3.03;;;1.80;;
34673;SDS011;20879;55.668;37.858;2022-09-09T02:27:29;3.63;;;1.55;;
34673;SDS011;20879;55.668;37.858;2022-09-09T02:30:01;3.08;;;1.55;;
34673;SDS011;20879;55.668;37.858;2022-09-09T02:32:41;2.20;;;1.58;;
34673;SDS011;20879;55.668;37.858;2022-09-09T02:35:15;3.97;;;1.52;;
34673;SDS011;20879;55.668;37.858;2022-09-09T02:37:53;3.20;;;1.35;;
34673;SDS011;20879;55.668;37.858;2022-09-09T02:40:26;2.00;;;1.42;;
34673;SDS011;20879;55.668;37.858;2022-09-09T02:43:00;1.98;;;1.63;;
34673;SDS011;20879;55.668;37.858;2022-09-09T02:45:34;1.70;;;1.47;;
34673;SDS011;20879;55.668;37.858;2022-09-09T02:48:14;4.22;;;1.90;;
34673;SDS011;20879;55.668;37.858;2022-09-09T02:50:57;2.83;;;1.42;;
34673;SDS011;20879;55.668;37.858;2022-09-09T02:53:43;2.50;;;1.63;;
34673;SDS011;20879;55.668;37.858;2022-09-09T02:56:23;1.80;;;1.52;;
34673;SDS011;20879;55.668;37.858;2022-09-09T02:59:04;4.50;;;1.63;;
34673;SDS011;20879;55.668;37.858;2022-09-09T03:01:37;2.35;;;1.58;;
34673;SDS011;20879;55.668;37.858;2022-09-09T03:04:09;1.50;;;1.40;;
34673;SDS011;20879;55.668;37.858;2022-09-09T03:06:38;2.10;;;1.20;;
34673;SDS011;20879;55.668;37.858;2022-09-09T03:09:21;3.15;;;1.60;;
34673;SDS011;20879;55.668;37.858;2022-09-09T03:11:50;1.88;;;1.30;;
34673;SDS011;20879;55.668;37.858;2022-09-09T03:14:28;3.15;;;1.60;;
34673;SDS011;20879;55.668;37.858;2022-09-09T03:16:59;1.83;;;1.35;;
34673;SDS011;20879;55.668;37.858;2022-09-09T03:19:35;2.85;;;1.77;;
34673;SDS011;20879;55.668;37.858;2022-09-09T03:22:07;2.20;;;1.50;;
34673;SDS011;20879;55.668;37.858;2022-09-09T03:24:42;3.42;;;1.65;;
34673;SDS011;20879;55.668;37.858;2022-09-09T03:27:18;3.90;;;1.80;;
34673;SDS011;20879;55.668;37.858;2022-09-09T03:29:47;1.70;;;1.60;;
34673;SDS011;20879;55.668;37.858;2022-09-09T03:32:23;3.78;;;1.77;;
34673;SDS011;20879;55.668;37.858;2022-09-09T03:35:00;2.38;;;1.98;;
34673;SDS011;20879;55.668;37.858;2022-09-09T03:37:30;2.38;;;1.67;;
34673;SDS011;20879;55.668;37.858;2022-09-09T03:39:59;2.85;;;1.52;;
34673;SDS011;20879;55.668;37.858;2022-09-09T03:42:29;2.92;;;1.98;;
34673;SDS011;20879;55.668;37.858;2022-09-09T03:47:41;2.65;;;1.80;;
34673;SDS011;20879;55.668;37.858;2022-09-09T03:50:10;3.83;;;2.20;;
34673;SDS011;20879;55.668;37.858;2022-09-09T03:52:44;4.20;;;2.33;;
34673;SDS011;20879;55.668;37.858;2022-09-09T03:55:20;3.15;;;1.75;;
34673;SDS011;20879;55.668;37.858;2022-09-09T03:57:55;2.65;;;1.75;;
34673;SDS011;20879;55.668;37.858;2022-09-09T04:00:24;3.40;;;1.77;;
34673;SDS011;20879;55.668;37.858;2022-09-09T04:03:00;3.20;;;1.90;;
34673;SDS011;20879;55.668;37.858;2022-09-09T04:08:06;4.88;;;1.73;;
34673;SDS011;20879;55.668;37.858;2022-09-09T04:10:35;4.82;;;2.00;;
34673;SDS011;20879;55.668;37.858;2022-09-09T04:13:04;3.10;;;2.17;;
34673;SDS011;20879;55.668;37.858;2022-09-09T04:15:39;3.45;;;1.85;;
34673;SDS011;20879;55.668;37.858;2022-09-09T04:18:10;3.72;;;2.05;;
34673;SDS011;20879;55.668;37.858;2022-09-09T04:20:46;4.20;;;2.10;;
34673;SDS011;20879;55.668;37.858;2022-09-09T04:23:19;2.42;;;1.77;;
34673;SDS011;20879;55.668;37.858;2022-09-09T04:25:51;3.63;;;2.10;;
34673;SDS011;20879;55.668;37.858;2022-09-09T04:28:22;2.55;;;2.20;;
34673;SDS011;20879;55.668;37.858;2022-09-09T04:30:53;7.80;;;2.28;;
34673;SDS011;20879;55.668;37.858;2022-09-09T04:33:30;3.58;;;2.10;;
34673;SDS011;20879;55.668;37.858;2022-09-09T04:36:06;2.95;;;2.10;;
34673;SDS011;20879;55.668;37.858;2022-09-09T04:38:35;3.10;;;1.90;;
34673;SDS011;20879;55.668;37.858;2022-09-09T04:41:05;2.13;;;1.90;;
34673;SDS011;20879;55.668;37.858;2022-09-09T04:43:44;3.08;;;2.00;;
34673;SDS011;20879;55.668;37.858;2022-09-09T04:46:15;3.40;;;2.05;;
34673;SDS011;20879;55.668;37.858;2022-09-09T04:48:48;2.63;;;2.00;;
34673;SDS011;20879;55.668;37.858;2022-09-09T04:51:27;4.68;;;1.90;;
34673;SDS011;20879;55.668;37.858;2022-09-09T04:53:57;2.72;;;2.13;;
34673;SDS011;20879;55.668;37.858;2022-09-09T04:56:26;3.45;;;2.05;;
34673;SDS011;20879;55.668;37.858;2022-09-09T04:58:57;3.60;;;2.03;;
34673;SDS011;20879;55.668;37.858;2022-09-09T05:01:43;3.00;;;1.75;;
34673;SDS011;20879;55.668;37.858;2022-09-09T05:04:14;3.80;;;2.22;;
34673;SDS011;20879;55.668;37.858;2022-09-09T05:06:45;3.38;;;1.95;;
34673;SDS011;20879;55.668;37.858;2022-09-09T05:09:15;3.17;;;2.00;;
34673;SDS011;20879;55.668;37.858;2022-09-09T05:11:50;4.93;;;2.00;;
34673;SDS011;20879;55.668;37.858;2022-09-09T05:14:34;2.67;;;2.00;;
34673;SDS011;20879;55.668;37.858;2022-09-09T05:17:04;5.05;;;1.98;;
34673;SDS011;20879;55.668;37.858;2022-09-09T05:22:07;5.55;;;1.98;;
34673;SDS011;20879;55.668;37.858;2022-09-09T05:24:42;2.53;;;2.15;;
34673;SDS011;20879;55.668;37.858;2022-09-09T05:27:12;3.70;;;2.28;;
34673;SDS011;20879;55.668;37.858;2022-09-09T05:29:41;3.97;;;2.13;;
34673;SDS011;20879;55.668;37.858;2022-09-09T05:32:12;7.47;;;2.20;;
34673;SDS011;20879;55.668;37.858;2022-09-09T05:34:50;3.28;;;2.28;;
34673;SDS011;20879;55.668;37.858;2022-09-09T05:37:20;5.55;;;1.85;;
34673;SDS011;20879;55.668;37.858;2022-09-09T05:39:50;2.47;;;1.80;;
34673;SDS011;20879;55.668;37.858;2022-09-09T05:42:19;2.70;;;1.80;;
34673;SDS011;20879;55.668;37.858;2022-09-09T05:44:49;4.15;;;2.00;;
34673;SDS011;20879;55.668;37.858;2022-09-09T05:49:51;2.42;;;1.75;;
34673;SDS011;20879;55.668;37.858;2022-09-09T05:54:54;6.35;;;1.75;;
34673;SDS011;20879;55.668;37.858;2022-09-09T05:57:28;3.38;;;1.92;;
34673;SDS011;20879;55.668;37.858;2022-09-09T05:59:59;2.08;;;1.33;;
34673;SDS011;20879;55.668;37.858;2022-09-09T06:02:39;3.72;;;1.63;;
34673;SDS011;20879;55.668;37.858;2022-09-09T06:05:15;1.85;;;1.27;;
34673;SDS011;20879;55.668;37.858;2022-09-09T06:07:45;2.00;;;1.50;;
34673;SDS011;20879;55.668;37.858;2022-09-09T06:10:14;2.22;;;1.10;;
34673;SDS011;20879;55.668;37.858;2022-09-09T06:12:49;2.85;;;1.20;;
34673;SDS011;20879;55.668;37.858;2022-09-09T06:15:21;3.47;;;1.40;;
34673;SDS011;20879;55.668;37.858;2022-09-09T06:17:56;3.90;;;1.17;;
34673;SDS011;20879;55.668;37.858;2022-09-09T06:20:27;1.83;;;0.95;;
34673;SDS011;20879;55.668;37.858;2022-09-09T06:22:58;3.42;;;1.00;;
34673;SDS011;20879;55.668;37.858;2022-09-09T06:25:33;1.10;;;0.70;;
34673;SDS011;20879;55.668;37.858;2022-09-09T06:28:02;1.70;;;1.10;;
34673;SDS011;20879;55.668;37.858;2022-09-09T06:30:37;1.60;;;0.80;;
34673;SDS011;20879;55.668;37.858;2022-09-09T06:33:18;3.08;;;1.10;;
34673;SDS011;20879;55.668;37.858;2022-09-09T06:35:54;1.90;;;1.00;;
34673;SDS011;20879;55.668;37.858;2022-09-09T06:38:24;2.83;;;0.88;;
34673;SDS011;20879;55.668;37.858;2022-09-09T06:40:54;1.13;;;0.77;;
34673;SDS011;20879;55.668;37.858;2022-09-09T06:43:29;2.38;;;0.90;;
34673;SDS011;20879;55.668;37.858;2022-09-09T06:46:00;1.92;;;1.00;;
34673;SDS011;20879;55.668;37.858;2022-09-09T06:48:33;0.50;;;0.50;;
34673;SDS011;20879;55.668;37.858;2022-09-09T06:51:05;0.70;;;0.60;;
34673;SDS011;20879;55.668;37.858;2022-09-09T06:53:38;0.40;;;0.40;;
34673;SDS011;20879;55.668;37.858;2022-09-09T06:56:20;0.73;;;0.50;;
34673;SDS011;20879;55.668;37.858;2022-09-09T06:58:54;1.27;;;0.50;;
34673;SDS011;20879;55.668;37.858;2022-09-09T07:01:29;0.50;;;0.50;;
34673;SDS011;20879;55.668;37.858;2022-09-09T07:04:03;0.68;;;0.40;;
34673;SDS011;20879;55.668;37.858;2022-09-09T07:06:38;0.55;;;0.30;;
34673;SDS011;20879;55.668;37.858;2022-09-09T07:09:12;1.25;;;0.47;;
34673;SDS011;20879;55.668;37.858;2022-09-09T07:11:45;1.88;;;0.50;;
34673;SDS011;20879;55.668;37.858;2022-09-09T07:14:18;1.00;;;0.65;;
34673;SDS011;20879;55.668;37.858;2022-09-09T07:16:53;1.48;;;0.70;;
34673;SDS011;20879;55.668;37.858;2022-09-09T07:19:30;0.80;;;0.50;;
34673;SDS011;20879;55.668;37.858;2022-09-09T07:22:07;1.20;;;0.68;;
34673;SDS011;20879;55.668;37.858;2022-09-09T07:27:06;1.00;;;0.70;;
34673;SDS011;20879;55.668;37.858;2022-09-09T07:29:36;1.70;;;0.70;;
34673;SDS011;20879;55.668;37.858;2022-09-09T07:32:07;1.77;;;0.73;;
34673;SDS011;20879;55.668;37.858;2022-09-09T07:34:37;2.10;;;0.60;;
34673;SDS011;20879;55.668;37.858;2022-09-09T07:37:08;2.83;;;0.80;;
34673;SDS011;20879;55.668;37.858;2022-09-09T07:39:42;0.60;;;0.60;;
34673;SDS011;20879;55.668;37.858;2022-09-09T07:42:12;2.30;;;0.65;;
34673;SDS011;20879;55.668;37.858;2022-09-09T07:44:41;1.67;;;0.68;;
34673;SDS011;20879;55.668;37.858;2022-09-09T07:47:13;0.95;;;0.75;;
34673;SDS011;20879;55.668;37.858;2022-09-09T07:49:50;3.17;;;1.00;;
34673;SDS011;20879;55.668;37.858;2022-09-09T07:52:28;2.35;;;0.85;;
34673;SDS011;20879;55.668;37.858;2022-09-09T07:55:01;0.70;;;0.60;;
34673;SDS011;20879;55.668;37.858;2022-09-09T07:57:37;0.88;;;0.50;;
34673;SDS011;20879;55.668;37.858;2022-09-09T08:00:13;0.82;;;0.50;;
34673;SDS011;20879;55.668;37.858;2022-09-09T08:02:50;1.15;;;0.80;;
34673;SDS011;20879;55.668;37.858;2022-09-09T08:05:21;0.70;;;0.50;;
34673;SDS011;20879;55.668;37.858;2022-09-09T08:07:53;0.77;;;0.40;;
34673;SDS011;20879;55.668;37.858;2022-09-09T08:10:29;0.73;;;0.50;;
34673;SDS011;20879;55.668;37.858;2022-09-09T08:13:00;1.20;;;0.60;;
34673;SDS011;20879;55.668;37.858;2022-09-09T08:15:46;0.55;;;0.55;;
34673;SDS011;20879;55.668;37.858;2022-09-09T08:18:16;1.02;;;0.75;;
34673;SDS011;20879;55.668;37.858;2022-09-09T08:20:46;2.35;;;0.65;;
34673;SDS011;20879;55.668;37.858;2022-09-09T08:23:18;0.60;;;0.60;;
34673;SDS011;20879;55.668;37.858;2022-09-09T08:28:17;0.70;;;0.50;;
34673;SDS011;20879;55.668;37.858;2022-09-09T08:30:47;1.15;;;0.65;;
34673;SDS011;20879;55.668;37.858;2022-09-09T08:33:17;0.85;;;0.57;;
34673;SDS011;20879;55.668;37.858;2022-09-09T08:35:51;3.05;;;0.75;;
34673;SDS011;20879;55.668;37.858;2022-09-09T08:38:27;1.00;;;0.90;;
34673;SDS011;20879;55.668;37.858;2022-09-09T08:40:58;1.13;;;0.60;;
34673;SDS011;20879;55.668;37.858;2022-09-09T08:43:39;1.00;;;0.73;;
34673;SDS011;20879;55.668;37.858;2022-09-09T08:46:17;0.98;;;0.80;;
34673;SDS011;20879;55.668;37.858;2022-09-09T08:48:58;0.82;;;0.60;;
34673;SDS011;20879;55.668;37.858;2022-09-09T08:51:33;0.80;;;0.60;;
34673;SDS011;20879;55.668;37.858;2022-09-09T08:54:06;1.23;;;0.65;;
34673;SDS011;20879;55.668;37.858;2022-09-09T08:56:42;2.47;;;1.00;;
34673;SDS011;20879;55.668;37.858;2022-09-09T08:59:13;0.85;;;0.70;;
34673;SDS011;20879;55.668;37.858;2022-09-09T09:01:53;0.73;;;0.70;;
34673;SDS011;20879;55.668;37.858;2022-09-09T09:04:45;0.88;;;0.65;;
34673;SDS011;20879;55.668;37.858;2022-09-09T09:07:30;1.60;;;0.80;;
34673;SDS011;20879;55.668;37.858;2022-09-09T09:10:12;1.08;;;0.60;;
34673;SDS011;20879;55.668;37.858;2022-09-09T09:13:08;0.70;;;0.60;;
34673;SDS011;20879;55.668;37.858;2022-09-09T09:15:49;1.45;;;0.70;;
34673;SDS011;20879;55.668;37.858;2022-09-09T09:18:25;2.08;;;0.77;;
34673;SDS011;20879;55.668;37.858;2022-09-09T09:20:57;4.25;;;1.08;;
34673;SDS011;20879;55.668;37.858;2022-09-09T09:23:42;0.82;;;0.68;;
34673;SDS011;20879;55.668;37.858;2022-09-09T09:26:21;1.77;;;0.88;;
34673;SDS011;20879;55.668;37.858;2022-09-09T09:28:55;2.08;;;0.70;;
34673;SDS011;20879;55.668;37.858;2022-09-09T09:31:27;1.80;;;0.60;;
34673;SDS011;20879;55.668;37.858;2022-09-09T09:33:56;0.85;;;0.68;;
34673;SDS011;20879;55.668;37.858;2022-09-09T09:36:33;0.77;;;0.68;;
34673;SDS011;20879;55.668;37.858;2022-09-09T09:39:08;1.92;;;0.80;;
34673;SDS011;20879;55.668;37.858;2022-09-09T09:44:42;0.82;;;0.60;;
34673;SDS011;20879;55.668;37.858;2022-09-09T09:47:19;0.73;;;0.60;;
34673;SDS011;20879;55.668;37.858;2022-09-09T09:50:16;0.60;;;0.60;;
34673;SDS011;20879;55.668;37.858;2022-09-09T09:52:53;1.60;;;0.60;;
34673;SDS011;20879;55.668;37.858;2022-09-09T09:55:26;1.30;;;0.60;;
34673;SDS011;20879;55.668;37.858;2022-09-09T09:58:04;0.60;;;0.60;;
34673;SDS011;20879;55.668;37.858;2022-09-09T10:00:48;1.98;;;0.60;;
34673;SDS011;20879;55.668;37.858;2022-09-09T10:03:28;0.70;;;0.70;;
34673;SDS011;20879;55.668;37.858;2022-09-09T10:06:00;0.65;;;0.60;;
34673;SDS011;20879;55.668;37.858;2022-09-09T10:08:32;1.25;;;0.90;;
34673;SDS011;20879;55.668;37.858;2022-09-09T10:11:12;0.82;;;0.63;;
34673;SDS011;20879;55.668;37.858;2022-09-09T10:13:59;1.27;;;0.70;;
34673;SDS011;20879;55.668;37.858;2022-09-09T10:16:40;0.30;;;0.30;;
34673;SDS011;20879;55.668;37.858;2022-09-09T10:19:21;1.02;;;0.60;;
34673;SDS011;20879;55.668;37.858;2022-09-09T10:22:02;1.88;;;1.08;;
34673;SDS011;20879;55.668;37.858;2022-09-09T10:24:51;2.50;;;1.00;;
34673;SDS011;20879;55.668;37.858;2022-09-09T10:27:38;0.77;;;0.65;;
34673;SDS011;20879;55.668;37.858;2022-09-09T10:30:26;0.85;;;0.60;;
34673;SDS011;20879;55.668;37.858;2022-09-09T10:33:02;0.70;;;0.40;;
34673;SDS011;20879;55.668;37.858;2022-09-09T10:35:39;0.90;;;0.70;;
34673;SDS011;20879;55.668;37.858;2022-09-09T10:38:16;1.88;;;0.82;;
34673;SDS011;20879;55.668;37.858;2022-09-09T10:41:03;1.73;;;0.50;;
34673;SDS011;20879;55.668;37.858;2022-09-09T10:43:59;1.80;;;0.73;;
34673;SDS011;20879;55.668;37.858;2022-09-09T10:46:54;0.63;;;0.45;;
34673;SDS011;20879;55.668;37.858;2022-09-09T10:49:42;0.43;;;0.30;;
34673;SDS011;20879;55.668;37.858;2022-09-09T10:52:28;1.70;;;0.50;;
34673;SDS011;20879;55.668;37.858;2022-09-09T10:55:07;1.58;;;0.50;;
34673;SDS011;20879;55.668;37.858;2022-09-09T10:57:42;0.40;;;0.40;;
34673;SDS011;20879;55.668;37.858;2022-09-09T11:00:15;0.52;;;0.50;;
34673;SDS011;20879;55.668;37.858;2022-09-09T11:02:51;1.95;;;0.75;;
34673;SDS011;20879;55.668;37.858;2022-09-09T11:05:25;0.60;;;0.45;;
34673;SDS011;20879;55.668;37.858;2022-09-09T11:08:00;0.73;;;0.50;;
34673;SDS011;20879;55.668;37.858;2022-09-09T11:10:36;1.05;;;0.60;;
34673;SDS011;20879;55.668;37.858;2022-09-09T11:13:15;1.45;;;0.60;;
34673;SDS011;20879;55.668;37.858;2022-09-09T11:15:49;1.35;;;0.50;;
34673;SDS011;20879;55.668;37.858;2022-09-09T11:18:25;0.77;;;0.47;;
34673;SDS011;20879;55.668;37.858;2022-09-09T11:21:06;0.82;;;0.60;;
34673;SDS011;20879;55.668;37.858;2022-09-09T11:23:42;1.25;;;0.65;;
34673;SDS011;20879;55.668;37.858;2022-09-09T11:26:17;2.03;;;0.40;;
34673;SDS011;20879;55.668;37.858;2022-09-09T11:29:03;2.28;;;0.80;;
34673;SDS011;20879;55.668;37.858;2022-09-09T11:31:52;1.08;;;0.98;;
34673;SDS011;20879;55.668;37.858;2022-09-09T11:34:47;0.80;;;0.52;;
34673;SDS011;20879;55.668;37.858;2022-09-09T11:37:31;0.80;;;0.60;;
34673;SDS011;20879;55.668;37.858;2022-09-09T11:40:20;1.58;;;0.80;;
34673;SDS011;20879;55.668;37.858;2022-09-09T11:43:00;2.47;;;0.60;;
34673;SDS011;20879;55.668;37.858;2022-09-09T11:45:34;0.80;;;0.60;;
34673;SDS011;20879;55.668;37.858;2022-09-09T11:48:05;0.32;;;0.30;;
34673;SDS011;20879;55.668;37.858;2022-09-09T11:51:01;0.85;;;0.68;;
34673;SDS011;20879;55.668;37.858;2022-09-09T11:53:49;0.95;;;0.60;;
34673;SDS011;20879;55.668;37.858;2022-09-09T11:59:19;0.90;;;0.60;;
34673;SDS011;20879;55.668;37.858;2022-09-09T12:01:53;0.68;;;0.63;;
34673;SDS011;20879;55.668;37.858;2022-09-09T12:04:35;0.50;;;0.40;;
34673;SDS011;20879;55.668;37.858;2022-09-09T12:07:32;1.95;;;0.68;;
34673;SDS011;20879;55.668;37.858;2022-09-09T12:10:05;0.82;;;0.80;;
34673;SDS011;20879;55.668;37.858;2022-09-09T12:12:50;1.00;;;0.70;;
34673;SDS011;20879;55.668;37.858;2022-09-09T12:15:24;1.08;;;0.60;;
34673;SDS011;20879;55.668;37.858;2022-09-09T12:17:55;0.85;;;0.68;;
34673;SDS011;20879;55.668;37.858;2022-09-09T12:20:33;1.02;;;0.70;;
34673;SDS011;20879;55.668;37.858;2022-09-09T12:23:21;0.73;;;0.63;;
34673;SDS011;20879;55.668;37.858;2022-09-09T12:26:05;0.70;;;0.40;;
34673;SDS011;20879;55.668;37.858;2022-09-09T12:28:47;1.20;;;0.60;;
34673;SDS011;20879;55.668;37.858;2022-09-09T12:31:32;0.80;;;0.68;;
34673;SDS011;20879;55.668;37.858;2022-09-09T12:34:23;1.55;;;1.10;;
34673;SDS011;20879;55.668;37.858;2022-09-09T12:37:08;1.25;;;0.70;;
34673;SDS011;20879;55.668;37.858;2022-09-09T12:39:47;1.33;;;0.70;;
34673;SDS011;20879;55.668;37.858;2022-09-09T12:42:21;1.83;;;1.02;;
34673;SDS011;20879;55.668;37.858;2022-09-09T12:44:51;0.82;;;0.40;;
34673;SDS011;20879;55.668;37.858;2022-09-09T12:47:26;0.50;;;0.50;;
34673;SDS011;20879;55.668;37.858;2022-09-09T12:56:57;0.57;;;0.57;;
34673;SDS011;20879;55.668;37.858;2022-09-09T12:59:36;1.65;;;0.50;;
34673;SDS011;20879;55.668;37.858;2022-09-09T13:02:16;1.15;;;0.63;;
34673;SDS011;20879;55.668;37.858;2022-09-09T13:04:51;0.93;;;0.50;;
34673;SDS011;20879;55.668;37.858;2022-09-09T13:07:21;0.68;;;0.38;;
34673;SDS011;20879;55.668;37.858;2022-09-09T13:09:51;0.82;;;0.60;;
34673;SDS011;20879;55.668;37.858;2022-09-09T13:12:22;0.77;;;0.60;;
34673;SDS011;20879;55.668;37.858;2022-09-09T13:14:52;0.65;;;0.40;;
34673;SDS011;20879;55.668;37.858;2022-09-09T13:17:24;0.98;;;0.68;;
34673;SDS011;20879;55.668;37.858;2022-09-09T13:19:55;1.02;;;0.60;;
34673;SDS011;20879;55.668;37.858;2022-09-09T13:22:31;0.40;;;0.40;;
34673;SDS011;20879;55.668;37.858;2022-09-09T13:25:17;1.08;;;0.60;;
34673;SDS011;20879;55.668;37.858;2022-09-09T13:27:56;0.93;;;0.57;;
34673;SDS011;20879;55.668;37.858;2022-09-09T13:30:33;0.98;;;0.65;;
34673;SDS011;20879;55.668;37.858;2022-09-09T13:33:19;2.75;;;0.80;;
34673;SDS011;20879;55.668;37.858;2022-09-09T13:35:58;1.05;;;0.80;;
34673;SDS011;20879;55.668;37.858;2022-09-09T13:38:30;0.80;;;0.80;;
34673;SDS011;20879;55.668;37.858;2022-09-09T13:41:18;3.42;;;1.00;;
34673;SDS011;20879;55.668;37.858;2022-09-09T13:43:51;1.08;;;0.60;;
34673;SDS011;20879;55.668;37.858;2022-09-09T13:46:24;0.50;;;0.40;;
34673;SDS011;20879;55.668;37.858;2022-09-09T13:48:57;2.00;;;0.90;;
34673;SDS011;20879;55.668;37.858;2022-09-09T13:51:30;1.10;;;1.00;;
34673;SDS011;20879;55.668;37.858;2022-09-09T13:54:04;3.15;;;1.40;;
34673;SDS011;20879;55.668;37.858;2022-09-09T13:56:34;1.20;;;0.80;;
34673;SDS011;20879;55.668;37.858;2022-09-09T13:59:09;1.55;;;0.98;;
34673;SDS011;20879;55.668;37.858;2022-09-09T14:01:42;2.65;;;1.17;;
34673;SDS011;20879;55.668;37.858;2022-09-09T14:04:11;2.55;;;1.50;;
34673;SDS011;20879;55.668;37.858;2022-09-09T14:06:41;1.38;;;0.90;;
34673;SDS011;20879;55.668;37.858;2022-09-09T14:09:14;3.05;;;1.00;;
34673;SDS011;20879;55.668;37.858;2022-09-09T14:11:44;2.22;;;0.98;;
34673;SDS011;20879;55.668;37.858;2022-09-09T14:14:16;3.72;;;0.90;;
34673;SDS011;20879;55.668;37.858;2022-09-09T14:16:51;4.45;;;0.90;;
34673;SDS011;20879;55.668;37.858;2022-09-09T14:19:27;2.35;;;0.80;;
34673;SDS011;20879;55.668;37.858;2022-09-09T14:21:57;0.98;;;0.77;;
34673;SDS011;20879;55.668;37.858;2022-09-09T14:24:27;0.90;;;0.63;;
34673;SDS011;20879;55.668;37.858;2022-09-09T14:27:02;1.77;;;0.82;;
34673;SDS011;20879;55.668;37.858;2022-09-09T14:29:33;1.58;;;0.90;;
34673;SDS011;20879;55.668;37.858;2022-09-09T14:32:07;1.65;;;0.95;;
34673;SDS011;20879;55.668;37.858;2022-09-09T14:34:43;3.38;;;0.90;;
34673;SDS011;20879;55.668;37.858;2022-09-09T14:37:17;2.83;;;1.10;;
34673;SDS011;20879;55.668;37.858;2022-09-09T14:40:00;2.35;;;0.90;;
34673;SDS011;20879;55.668;37.858;2022-09-09T14:42:29;0.93;;;0.70;;
34673;SDS011;20879;55.668;37.858;2022-09-09T14:45:00;1.23;;;0.90;;
34673;SDS011;20879;55.668;37.858;2022-09-09T14:47:30;2.55;;;1.00;;
34673;SDS011;20879;55.668;37.858;2022-09-09T14:49:59;1.17;;;0.70;;
34673;SDS011;20879;55.668;37.858;2022-09-09T14:52:31;2.33;;;0.70;;
34673;SDS011;20879;55.668;37.858;2022-09-09T14:55:00;2.83;;;1.00;;
34673;SDS011;20879;55.668;37.858;2022-09-09T14:57:39;2.20;;;0.80;;
34673;SDS011;20879;55.668;37.858;2022-09-09T15:00:16;2.33;;;0.77;;
34673;SDS011;20879;55.668;37.858;2022-09-09T15:05:15;2.13;;;0.90;;
34673;SDS011;20879;55.668;37.858;2022-09-09T15:07:45;1.55;;;0.90;;
34673;SDS011;20879;55.668;37.858;2022-09-09T15:10:15;1.15;;;0.80;;
34673;SDS011;20879;55.668;37.858;2022-09-09T15:12:51;1.45;;;0.93;;
34673;SDS011;20879;55.668;37.858;2022-09-09T15:15:22;2.95;;;1.15;;
34673;SDS011;20879;55.668;37.858;2022-09-09T15:17:53;1.48;;;1.00;;
34673;SDS011;20879;55.668;37.858;2022-09-09T15:20:29;1.42;;;1.05;;
34673;SDS011;20879;55.668;37.858;2022-09-09T15:23:10;1.27;;;0.90;;
34673;SDS011;20879;55.668;37.858;2022-09-09T15:25:49;1.30;;;1.20;;
34673;SDS011;20879;55.668;37.858;2022-09-09T15:28:19;2.58;;;1.00;;
34673;SDS011;20879;55.668;37.858;2022-09-09T15:30:51;3.60;;;1.17;;
34673;SDS011;20879;55.668;37.858;2022-09-09T15:33:28;2.45;;;1.30;;
34673;SDS011;20879;55.668;37.858;2022-09-09T15:35:58;1.63;;;1.27;;
34673;SDS011;20879;55.668;37.858;2022-09-09T15:38:27;1.85;;;1.15;;
34673;SDS011;20879;55.668;37.858;2022-09-09T15:40:56;2.25;;;1.38;;
34673;SDS011;20879;55.668;37.858;2022-09-09T15:43:26;2.60;;;1.25;;
34673;SDS011;20879;55.668;37.858;2022-09-09T15:45:58;1.48;;;1.17;;
34673;SDS011;20879;55.668;37.858;2022-09-09T15:48:41;1.85;;;1.30;;
34673;SDS011;20879;55.668;37.858;2022-09-09T15:51:15;2.58;;;1.45;;
34673;SDS011;20879;55.668;37.858;2022-09-09T15:54:12;2.25;;;1.08;;
34673;SDS011;20879;55.668;37.858;2022-09-09T15:56:43;4.38;;;1.30;;
34673;SDS011;20879;55.668;37.858;2022-09-09T15:59:14;2.65;;;1.65;;
34673;SDS011;20879;55.668;37.858;2022-09-09T16:01:45;2.45;;;1.10;;
34673;SDS011;20879;55.668;37.858;2022-09-09T16:04:17;9.52;;;1.42;;